Observations for BRINDISI, Italy (LIBR)

LIBR 260450Z 33011KT 9999 FEW015 26/23 Q1015
LIBR 260420Z 34011KT 9999 FEW015 26/23 Q1015
LIBR 260320Z 32011KT 8000 FEW013 25/23 Q1015
LIBR 260250Z 33010KT CAVOK 25/23 Q1015  
LIBR 260220Z 33011KT CAVOK 26/22 Q1015  
LIBR 260150Z 33010KT CAVOK 26/22 Q1015  
LIBR 260120Z 33010KT CAVOK 26/23 Q1015  
LIBR 260050Z 32011KT CAVOK 26/23 Q1015  
LIBR 260020Z 32011KT CAVOK 26/23 Q1015  
LIBR 252350Z 33010KT CAVOK 26/23 Q1015  
LIBR 252320Z 33010KT CAVOK 26/23 Q1015  
LIBR 252250Z 32010KT CAVOK 26/22 Q1015  
LIBR 252220Z 32012KT CAVOK 26/23 Q1015  
LIBR 252150Z 32009KT CAVOK 26/23 Q1015  
LIBR 252120Z 32010KT CAVOK 26/23 Q1015  
LIBR 252050Z 33008KT CAVOK 26/23 Q1015  
LIBR 252020Z 33007KT 9999 FEW010 26/23 Q1015
LIBR 251950Z 32007KT 9999 FEW010 26/24 Q1015
LIBR 251920Z 33009KT 9999 FEW010 26/24 Q1015
LIBR 251850Z 32011KT 9999 FEW010 26/24 Q1015
LIBR 251820Z 32010KT 9999 FEW010 26/23 Q1015
LIBR 251750Z 32009KT 9999 SCT010 26/24 Q1014
LIBR 251720Z 32009KT 9999 SCT010 26/23 Q1014
LIBR 251650Z 32009KT 9999 SCT010 27/24 Q1014
LIBR 251620Z 32010KT 9999 FEW010 27/24 Q1014
LIBR 251550Z 33011KT 9999 FEW010 27/24 Q1014
LIBR 251520Z 32010KT 9999 SCT010 27/23 Q1014
LIBR 251450Z 32012KT 9999 SCT010 28/24 Q1014
LIBR 251420Z 33011KT 9999 FEW015 27/24 Q1014
LIBR 251350Z 33011KT 9999 FEW015 28/24 Q1014
LIBR 251320Z 34013KT 9999 FEW015 28/24 Q1014
LIBR 251250Z 34012KT 300V360 9999 FEW015 29/23 Q1015
LIBR 251220Z 34013KT 8000 SCT013 28/23 Q1015
LIBR 251150Z 33013KT 8000 SCT013 28/24 Q1015
LIBR 251120Z 33012KT 8000 SCT013 28/23 Q1015
LIBR 251050Z 33013KT 8000 SCT013 29/23 Q1015
LIBR 251020Z 33013KT 9999 SCT015 29/23 Q1016
LIBR 250950Z 32013KT 9999 SCT015 28/23 Q1016
LIBR 250920Z 31014KT 9999 SCT015 28/23 Q1016
LIBR 250850Z 32013KT 9999 FEW015 27/23 Q1016
LIBR 250820Z 31014KT 9999 FEW015 28/23 Q1016
LIBR 250750Z 32012KT 9999 FEW015 28/23 Q1016
LIBR 250720Z 33012KT 9999 FEW015 27/23 Q1015
LIBR 250650Z 33011KT 9999 FEW015 27/23 Q1015
LIBR 250620Z 33012KT 9999 FEW015 27/23 Q1015
LIBR 250550Z 32011KT 8000 FEW010 26/23 Q1015
LIBR 250520Z 32010KT 8000 FEW013 26/23 Q1015
LIBR 250450Z 33009KT 9999 FEW015 26/23 Q1015